createdAt,value
2019-02-16T00:00:06.958Z,9.38
2019-02-16T00:02:48.086Z,9.70
2019-02-16T00:05:28.244Z,9.50
2019-02-16T00:08:07.617Z,9.68
2019-02-16T00:10:48.041Z,9.10
2019-02-16T00:13:27.929Z,8.98
2019-02-16T00:16:07.972Z,9.58
2019-02-16T00:18:48.195Z,9.47
2019-02-16T00:21:27.711Z,8.77
2019-02-16T00:24:07.710Z,9.65
2019-02-16T00:26:47.702Z,9.68
2019-02-16T00:29:31.370Z,9.25
2019-02-16T00:32:10.929Z,8.33
2019-02-16T00:34:50.135Z,10.07
2019-02-16T00:37:29.411Z,9.60
2019-02-16T00:40:09.275Z,8.70
2019-02-16T00:42:49.335Z,8.75
2019-02-16T00:45:28.600Z,8.78
2019-02-16T00:48:08.081Z,9.13
2019-02-16T00:50:47.258Z,9.20
2019-02-16T00:53:29.208Z,9.53
2019-02-16T00:56:09.737Z,9.00
2019-02-16T00:58:49.130Z,9.17
2019-02-16T01:01:28.434Z,9.50
2019-02-16T01:04:08.523Z,9.50
2019-02-16T01:06:48.341Z,8.88
2019-02-16T01:09:27.552Z,9.08
2019-02-16T01:12:06.866Z,8.25
2019-02-16T01:14:46.115Z,8.67
2019-02-16T01:17:25.487Z,7.93
2019-02-16T01:20:05.520Z,8.37
2019-02-16T01:22:44.595Z,7.97
2019-02-16T01:25:24.186Z,7.97
2019-02-16T01:28:08.504Z,8.13
2019-02-16T01:30:48.138Z,8.07
2019-02-16T01:33:27.437Z,7.77
2019-02-16T01:36:06.978Z,7.62
2019-02-16T01:38:46.080Z,7.13
2019-02-16T01:41:25.830Z,7.47
2019-02-16T01:44:06.368Z,8.33
2019-02-16T01:46:45.944Z,7.10
2019-02-16T01:49:25.062Z,7.40
2019-02-16T01:52:04.843Z,7.83
2019-02-16T01:54:44.574Z,7.60
2019-02-16T01:57:24.582Z,7.83
2019-02-16T02:00:03.832Z,7.70
2019-02-16T02:02:43.385Z,7.60
2019-02-16T02:05:22.601Z,7.37
2019-02-16T02:08:01.870Z,7.33
2019-02-16T02:10:42.105Z,7.33
2019-02-16T02:13:21.995Z,7.15
2019-02-16T02:16:01.200Z,7.20
2019-02-16T02:18:40.578Z,6.90
2019-02-16T02:21:21.408Z,7.00
2019-02-16T02:24:00.616Z,7.40
2019-02-16T02:26:39.992Z,7.00
2019-02-16T02:29:19.186Z,7.10
2019-02-16T02:31:58.298Z,8.13
2019-02-16T02:34:37.802Z,7.12
2019-02-16T02:37:17.008Z,7.90
2019-02-16T02:39:56.445Z,7.10
2019-02-16T02:42:35.779Z,7.67
2019-02-16T02:45:15.451Z,7.07
2019-02-16T02:47:55.153Z,7.60
2019-02-16T02:50:37.061Z,7.30
2019-02-16T02:53:16.204Z,7.53
2019-02-16T02:55:55.507Z,7.47
2019-02-16T02:58:34.702Z,7.43
2019-02-16T03:01:14.142Z,7.00
2019-02-16T03:03:53.501Z,6.93
2019-02-16T03:06:33.013Z,6.40
2019-02-16T03:09:12.302Z,5.23
2019-02-16T03:11:51.602Z,5.93
2019-02-16T03:14:33.077Z,6.23
2019-02-16T03:17:13.406Z,6.42
2019-02-16T03:19:52.672Z,5.87
2019-02-16T03:23:13.399Z,5.93
2019-02-16T03:26:45.468Z,5.63
2019-02-16T03:30:05.828Z,5.67
2019-02-16T03:33:49.026Z,5.57
2019-02-16T03:37:21.567Z,5.40
2019-02-16T03:40:00.829Z,5.50
2019-02-16T03:42:40.139Z,5.57
2019-02-16T03:45:19.451Z,5.40
2019-02-16T03:48:00.179Z,5.58
2019-02-16T03:50:39.264Z,5.50
2019-02-16T03:53:18.688Z,5.37
2019-02-16T03:55:57.867Z,5.53
2019-02-16T03:58:37.221Z,5.07
2019-02-16T04:01:16.396Z,4.83
2019-02-16T04:03:57.246Z,5.30
2019-02-16T04:06:36.377Z,5.43
2019-02-16T04:09:15.917Z,5.13
2019-02-16T04:11:55.439Z,5.20
2019-02-16T04:14:34.802Z,4.70
2019-02-16T04:17:14.109Z,5.27
2019-02-16T04:19:53.604Z,5.00
2019-02-16T04:22:32.900Z,5.20
2019-02-16T04:25:31.374Z,4.93
2019-02-16T04:28:13.109Z,5.30
2019-02-16T04:30:54.581Z,5.07
2019-02-16T04:33:33.812Z,4.60
2019-02-16T04:36:12.971Z,5.23
2019-02-16T04:38:52.322Z,5.20
2019-02-16T04:41:33.504Z,5.20
2019-02-16T04:44:12.698Z,4.83
2019-02-16T04:46:51.836Z,4.87
2019-02-16T04:49:30.930Z,5.17
2019-02-16T04:52:10.116Z,5.63
2019-02-16T04:54:49.219Z,4.93
2019-02-16T04:57:28.311Z,4.93
2019-02-16T05:00:08.727Z,4.53
2019-02-16T05:02:52.955Z,4.53
2019-02-16T05:05:32.089Z,5.13
2019-02-16T05:08:11.140Z,4.60
2019-02-16T05:10:50.645Z,5.30
2019-02-16T05:13:29.989Z,6.80
2019-02-16T05:16:09.253Z,6.23
2019-02-16T05:18:48.422Z,5.47
2019-02-16T05:21:27.843Z,4.47
2019-02-16T05:24:07.014Z,4.33
2019-02-16T05:26:46.964Z,4.53
2019-02-16T05:29:26.110Z,4.97
2019-02-16T05:32:11.718Z,4.73
2019-02-16T05:34:50.951Z,4.63
2019-02-16T05:37:30.584Z,4.47
2019-02-16T05:40:10.272Z,4.73
2019-02-16T05:42:51.747Z,4.20
2019-02-16T05:45:30.928Z,4.00
2019-02-16T05:48:10.128Z,4.13
2019-02-16T05:50:49.531Z,4.10
2019-02-16T05:53:30.333Z,4.43
2019-02-16T05:56:09.622Z,4.07
2019-02-16T05:58:48.925Z,4.60
2019-02-16T06:01:28.369Z,4.50
2019-02-16T06:04:07.511Z,3.97
2019-02-16T06:06:46.737Z,4.50
2019-02-16T06:09:26.011Z,4.00
2019-02-16T06:12:05.224Z,5.20
2019-02-16T06:14:44.515Z,6.23
2019-02-16T06:17:23.877Z,9.87
2019-02-16T06:20:03.034Z,10.77
2019-02-16T06:22:42.238Z,11.40
2019-02-16T06:25:21.477Z,12.40
2019-02-16T06:28:01.278Z,13.03
2019-02-16T06:30:40.507Z,13.37
2019-02-16T06:33:19.682Z,14.28
2019-02-16T06:36:03.865Z,13.72
2019-02-16T06:38:43.701Z,13.70
2019-02-16T06:41:22.860Z,13.33
2019-02-16T06:44:01.977Z,14.93
2019-02-16T06:46:41.222Z,14.47
2019-02-16T06:49:20.428Z,15.40
2019-02-16T06:52:00.141Z,15.88
2019-02-16T06:54:40.931Z,15.23
2019-02-16T06:57:24.087Z,15.10
2019-02-16T07:00:03.676Z,14.97
2019-02-16T07:02:43.208Z,13.23
2019-02-16T07:05:22.395Z,13.70
2019-02-16T07:08:01.571Z,14.00
2019-02-16T07:10:40.700Z,10.60
2019-02-16T07:13:23.648Z,10.15
2019-02-16T07:16:25.516Z,9.85
2019-02-16T07:19:11.061Z,9.50
2019-02-16T07:21:50.391Z,9.83
2019-02-16T07:24:29.857Z,9.90
2019-02-16T07:27:09.695Z,10.90
2019-02-16T07:30:12.782Z,12.27
2019-02-16T07:32:29.751Z,11.93
2019-02-16T07:35:09.434Z,12.10
2019-02-16T07:37:50.342Z,11.75
2019-02-16T07:40:29.662Z,11.73
2019-02-16T07:43:16.458Z,12.40
2019-02-16T07:46:02.453Z,11.93
2019-02-16T07:48:51.499Z,12.95
2019-02-16T07:51:50.220Z,14.30
2019-02-16T07:54:35.177Z,14.98
2019-02-16T07:57:47.442Z,14.93
2019-02-16T08:00:36.444Z,18.53
2019-02-16T08:03:24.486Z,17.70
2019-02-16T08:06:20.056Z,18.55
2019-02-16T08:09:17.261Z,19.80
2019-02-16T08:12:04.788Z,18.17
2019-02-16T08:15:04.496Z,20.35
2019-02-16T08:17:58.450Z,20.97
2019-02-16T08:21:06.146Z,21.30
2019-02-16T08:24:07.606Z,20.95
2019-02-16T08:27:00.587Z,18.73
2019-02-16T08:30:08.570Z,18.48
2019-02-16T08:33:19.446Z,19.27
2019-02-16T08:36:07.394Z,18.90
2019-02-16T08:39:00.253Z,19.77
2019-02-16T08:42:07.744Z,20.17
2019-02-16T08:45:06.520Z,20.53
2019-02-16T08:48:08.327Z,20.80
2019-02-16T08:51:21.815Z,20.97
2019-02-16T08:54:15.929Z,21.10
2019-02-16T08:57:17.382Z,21.43
2019-02-16T09:00:13.815Z,22.17
2019-02-16T09:02:59.389Z,22.33
2019-02-16T09:06:01.500Z,23.47
2019-02-16T09:09:00.495Z,22.33
2019-02-16T09:11:57.997Z,23.43
2019-02-16T09:15:02.419Z,22.50
2019-02-16T09:18:13.284Z,21.37
2019-02-16T09:21:14.835Z,22.40
2019-02-16T09:24:10.771Z,22.83
2019-02-16T09:27:02.246Z,22.60
2019-02-16T09:29:59.912Z,22.50
2019-02-16T09:32:53.864Z,23.63
2019-02-16T09:35:42.313Z,22.20
2019-02-16T09:38:31.235Z,21.73
2019-02-16T09:41:32.554Z,22.73
2019-02-16T09:44:31.175Z,22.73
2019-02-16T09:47:28.271Z,22.47
2019-02-16T09:50:23.151Z,23.10
2019-02-16T09:53:20.224Z,21.80
2019-02-16T09:56:16.011Z,22.73
2019-02-16T09:59:06.350Z,23.23
2019-02-16T10:02:03.912Z,23.73
2019-02-16T10:05:17.778Z,23.67
2019-02-16T10:08:11.825Z,23.40
2019-02-16T10:11:11.855Z,23.07
2019-02-16T10:14:01.646Z,22.47
2019-02-16T10:17:03.464Z,23.80
2019-02-16T10:20:04.759Z,21.63
2019-02-16T10:23:03.233Z,22.07
2019-02-16T10:26:03.500Z,21.97
2019-02-16T10:29:00.727Z,22.63
2019-02-16T10:31:49.557Z,21.67
2019-02-16T10:34:36.150Z,21.73
2019-02-16T10:37:38.846Z,21.93
2019-02-16T10:40:30.881Z,22.30
2019-02-16T10:43:32.347Z,22.50
2019-02-16T10:46:49.081Z,22.47
2019-02-16T10:49:53.861Z,21.07
2019-02-16T10:52:46.479Z,22.63
2019-02-16T10:55:45.985Z,21.50
2019-02-16T10:58:43.375Z,20.77
2019-02-16T11:01:40.800Z,21.23
2019-02-16T11:04:51.732Z,20.57
2019-02-16T11:07:40.883Z,21.77
2019-02-16T11:10:31.973Z,21.50
2019-02-16T11:13:20.978Z,21.33
2019-02-16T11:16:18.371Z,20.97
2019-02-16T11:19:07.891Z,19.53
2019-02-16T11:22:20.128Z,20.77
2019-02-16T11:25:33.712Z,21.00
2019-02-16T11:28:38.257Z,20.40
2019-02-16T11:31:28.146Z,20.83
2019-02-16T11:34:34.193Z,21.80
2019-02-16T11:37:39.013Z,21.07
2019-02-16T11:40:24.983Z,20.13
2019-02-16T11:43:35.823Z,20.20
2019-02-16T11:46:33.193Z,20.43
2019-02-16T11:49:20.089Z,19.43
2019-02-16T11:52:23.894Z,20.87
2019-02-16T11:55:21.250Z,19.77
2019-02-16T11:58:18.608Z,18.70
2019-02-16T12:01:14.898Z,19.17
2019-02-16T12:04:00.325Z,19.97
2019-02-16T12:06:53.146Z,19.23
2019-02-16T12:09:39.632Z,20.20
2019-02-16T12:12:29.456Z,19.23
2019-02-16T12:15:25.451Z,18.30
2019-02-16T12:18:34.679Z,18.77
2019-02-16T12:21:33.027Z,18.07
2019-02-16T12:24:27.193Z,19.37
2019-02-16T12:27:14.854Z,17.90
2019-02-16T12:30:04.304Z,17.87
2019-02-16T12:32:53.847Z,18.33
2019-02-16T12:35:55.397Z,17.97
2019-02-16T12:38:47.360Z,17.67
2019-02-16T12:41:48.841Z,17.07
2019-02-16T12:44:39.337Z,16.10
2019-02-16T12:47:29.756Z,16.90
2019-02-16T12:50:31.904Z,16.83
2019-02-16T12:53:36.442Z,17.03
2019-02-16T12:56:39.619Z,16.70
2019-02-16T12:59:30.439Z,16.20
2019-02-16T13:02:28.368Z,15.57
2019-02-16T13:05:19.196Z,16.67
2019-02-16T13:08:07.865Z,15.00
2019-02-16T13:10:54.727Z,14.57
2019-02-16T13:13:58.805Z,14.87
2019-02-16T13:17:15.430Z,15.20
2019-02-16T13:20:13.915Z,14.07
2019-02-16T13:23:15.581Z,15.30
2019-02-16T13:26:03.818Z,14.83
2019-02-16T13:29:02.321Z,16.13
2019-02-16T13:31:54.494Z,14.80
2019-02-16T13:34:52.928Z,15.20
2019-02-16T13:37:49.459Z,15.13
2019-02-16T13:40:36.061Z,14.20
2019-02-16T13:43:43.895Z,14.87
2019-02-16T13:46:57.362Z,15.13
2019-02-16T13:49:58.738Z,14.37
2019-02-16T13:52:54.467Z,13.77
2019-02-16T13:55:48.426Z,15.43
2019-02-16T13:58:45.614Z,14.70
2019-02-16T14:01:34.434Z,14.00
2019-02-16T14:04:36.627Z,15.23
2019-02-16T14:07:51.427Z,14.63
2019-02-16T14:10:51.192Z,14.57
2019-02-16T14:14:02.362Z,13.60
2019-02-16T14:17:00.960Z,14.27
2019-02-16T14:19:40.396Z,13.87
2019-02-16T14:22:19.936Z,12.50
2019-02-16T14:25:01.559Z,12.77
2019-02-16T14:27:42.013Z,12.83
2019-02-16T14:30:21.679Z,13.03
2019-02-16T14:33:01.335Z,13.07
2019-02-16T14:35:41.153Z,12.20
2019-02-16T14:38:35.043Z,12.50
2019-02-16T14:41:14.567Z,13.00
2019-02-16T14:43:53.979Z,11.90
2019-02-16T14:46:33.522Z,11.83
2019-02-16T14:49:15.477Z,12.53
2019-02-16T14:51:54.959Z,11.37
2019-02-16T14:54:34.411Z,11.93
2019-02-16T14:57:17.312Z,12.63
2019-02-16T15:00:00.308Z,11.30
2019-02-16T15:02:40.163Z,10.67
2019-02-16T15:05:19.943Z,10.57
2019-02-16T15:07:59.504Z,11.13
2019-02-16T15:10:39.791Z,9.97
2019-02-16T15:13:19.293Z,10.37
2019-02-16T15:15:58.843Z,11.07
2019-02-16T15:18:38.334Z,11.30
2019-02-16T15:21:17.898Z,11.30
2019-02-16T15:24:01.340Z,10.27
2019-02-16T15:26:40.971Z,11.10
2019-02-16T15:29:22.158Z,10.27
2019-02-16T15:32:01.923Z,10.00
2019-02-16T15:34:41.398Z,11.27
2019-02-16T15:37:21.010Z,10.47
2019-02-16T15:40:00.422Z,9.97
2019-02-16T15:42:39.978Z,10.43
2019-02-16T15:45:19.367Z,10.23
2019-02-16T15:48:00.070Z,10.97
2019-02-16T15:50:40.450Z,10.18
2019-02-16T15:53:23.328Z,10.15
2019-02-16T15:56:10.037Z,11.70
2019-02-16T15:58:44.140Z,12.17
2019-02-16T16:01:26.444Z,10.47
2019-02-16T16:04:06.430Z,11.70
2019-02-16T16:06:46.258Z,12.15
2019-02-16T16:09:46.082Z,13.10
2019-02-16T16:12:47.606Z,12.70
2019-02-16T16:15:45.461Z,11.70
2019-02-16T16:18:37.843Z,12.60
2019-02-16T16:21:24.524Z,22.50
2019-02-16T16:24:12.606Z,23.20
2019-02-16T16:27:15.679Z,30.37
2019-02-16T16:30:17.480Z,19.27
2019-02-16T16:33:22.314Z,16.82
2019-02-16T16:36:20.422Z,11.93
2019-02-16T16:39:12.758Z,13.22
2019-02-16T16:42:09.514Z,14.00
2019-02-16T16:45:06.596Z,12.47
2019-02-16T16:48:07.944Z,16.57
2019-02-16T16:51:12.426Z,14.23
2019-02-16T16:54:10.247Z,17.42
2019-02-16T16:57:02.100Z,13.68
2019-02-16T16:59:53.071Z,15.43
2019-02-16T17:02:47.833Z,22.62
2019-02-16T17:05:49.724Z,14.07
2019-02-16T17:08:49.065Z,13.40
2019-02-16T17:11:47.840Z,13.28
2019-02-16T17:14:40.546Z,13.62
2019-02-16T17:17:37.976Z,19.00
2019-02-16T17:20:36.846Z,21.45
2019-02-16T17:23:22.995Z,14.25
2019-02-16T17:26:27.843Z,14.30
2019-02-16T17:29:41.798Z,13.78
2019-02-16T17:32:49.656Z,16.52
2019-02-16T17:35:51.191Z,14.58
2019-02-16T17:38:41.237Z,15.53
2019-02-16T17:41:34.910Z,19.95
2019-02-16T17:44:29.563Z,17.60
2019-02-16T17:47:41.276Z,15.35
2019-02-16T17:50:45.020Z,16.35
2019-02-16T17:53:42.478Z,15.15
2019-02-16T17:56:47.008Z,17.00
2019-02-16T17:59:35.124Z,16.27
2019-02-16T18:02:23.168Z,16.25
2019-02-16T18:05:20.066Z,21.20
2019-02-16T18:08:24.748Z,34.18
2019-02-16T18:11:22.565Z,15.45
2019-02-16T18:14:10.417Z,14.95
2019-02-16T18:17:08.026Z,16.07
2019-02-16T18:20:16.127Z,15.72
2019-02-16T18:23:01.919Z,19.48
2019-02-16T18:26:06.987Z,16.07
2019-02-16T18:29:21.507Z,17.07
2019-02-16T18:32:29.436Z,15.80
2019-02-16T18:35:23.978Z,18.10
2019-02-16T18:38:25.150Z,17.75
2019-02-16T18:41:24.465Z,14.87
2019-02-16T18:44:23.160Z,16.05
2019-02-16T18:47:23.560Z,26.97
2019-02-16T18:50:19.947Z,16.77
2019-02-16T18:53:25.396Z,29.75
2019-02-16T18:56:30.737Z,17.35
2019-02-16T18:59:32.662Z,26.93
2019-02-16T19:02:43.241Z,16.10
2019-02-16T19:05:40.683Z,19.10
2019-02-16T19:08:38.520Z,17.27
2019-02-16T19:11:49.654Z,21.20
2019-02-16T19:14:48.609Z,17.75
2019-02-16T19:17:50.511Z,18.80
2019-02-16T19:20:49.127Z,19.98
2019-02-16T19:23:40.007Z,26.75
2019-02-16T19:26:28.028Z,21.73
2019-02-16T19:29:32.822Z,22.50
2019-02-16T19:32:30.185Z,22.32
2019-02-16T19:35:28.228Z,18.42
2019-02-16T19:38:25.198Z,18.07
2019-02-16T19:41:13.564Z,19.17
2019-02-16T19:44:10.627Z,20.40
2019-02-16T19:47:08.155Z,23.07
2019-02-16T19:50:05.822Z,19.37
2019-02-16T19:53:07.724Z,24.77
2019-02-16T19:56:04.896Z,38.05
2019-02-16T19:59:06.499Z,19.90
2019-02-16T20:02:14.954Z,25.80
2019-02-16T20:05:05.045Z,22.37
2019-02-16T20:07:51.983Z,24.02
2019-02-16T20:10:52.319Z,20.23
2019-02-16T20:13:44.138Z,19.42
2019-02-16T20:16:31.355Z,20.90
2019-02-16T20:19:21.156Z,20.37
2019-02-16T20:22:11.535Z,20.10
2019-02-16T20:25:10.530Z,21.37
2019-02-16T20:28:21.429Z,19.95
2019-02-16T20:31:09.655Z,19.32
2019-02-16T20:34:10.895Z,20.15
2019-02-16T20:37:13.973Z,19.12
2019-02-16T20:40:03.242Z,22.65
2019-02-16T20:43:04.797Z,24.72
2019-02-16T20:46:02.565Z,22.85
2019-02-16T20:48:58.569Z,25.32
2019-02-16T20:51:47.494Z,20.57
2019-02-16T20:55:01.982Z,19.73
2019-02-16T20:57:48.712Z,20.25
2019-02-16T21:00:43.362Z,25.17
2019-02-16T21:03:40.945Z,23.35
2019-02-16T21:06:32.221Z,22.65
2019-02-16T21:09:36.607Z,21.95
2019-02-16T21:12:34.328Z,20.60
2019-02-16T21:15:23.598Z,19.77
2019-02-16T21:18:21.299Z,20.25
2019-02-16T21:21:15.987Z,21.65
2019-02-16T21:24:21.455Z,22.35
2019-02-16T21:27:13.974Z,22.15
2019-02-16T21:30:28.377Z,21.48
2019-02-16T21:33:26.219Z,22.87
2019-02-16T21:36:43.520Z,21.33
2019-02-16T21:39:42.332Z,20.85
2019-02-16T21:42:27.553Z,21.40
2019-02-16T21:45:19.720Z,21.60
2019-02-16T21:48:14.369Z,22.27
2019-02-16T21:51:09.901Z,21.17
2019-02-16T21:54:07.011Z,20.60
2019-02-16T21:57:08.960Z,20.68
2019-02-16T22:00:00.362Z,18.82
2019-02-16T22:02:49.411Z,19.85
2019-02-16T22:05:50.747Z,20.88
2019-02-16T22:08:46.257Z,21.02
2019-02-16T22:11:44.616Z,19.50
2019-02-16T22:14:24.015Z,19.42
2019-02-16T22:17:04.084Z,18.20
2019-02-16T22:19:55.808Z,18.75
2019-02-16T22:22:36.043Z,18.45
2019-02-16T22:25:15.436Z,18.30
2019-02-16T22:27:55.937Z,17.67
2019-02-16T22:30:37.037Z,17.40
2019-02-16T22:33:16.374Z,19.25
2019-02-16T22:35:57.153Z,17.90
2019-02-16T22:38:36.560Z,18.95
2019-02-16T22:41:16.436Z,17.85
2019-02-16T22:43:56.339Z,18.27
2019-02-16T22:46:35.626Z,18.10
2019-02-16T22:49:14.959Z,18.63
2019-02-16T22:51:54.888Z,16.93
2019-02-16T22:54:34.638Z,17.50
2019-02-16T22:57:15.238Z,20.48
2019-02-16T22:59:55.448Z,21.25
2019-02-16T23:02:35.735Z,21.87
2019-02-16T23:05:15.378Z,20.68
2019-02-16T23:07:56.826Z,19.95
2019-02-16T23:10:37.028Z,20.50
2019-02-16T23:13:16.946Z,21.45
2019-02-16T23:15:56.897Z,20.12
2019-02-16T23:18:38.666Z,19.25
2019-02-16T23:21:17.827Z,19.60
2019-02-16T23:23:58.708Z,19.70
2019-02-16T23:26:37.951Z,19.62
2019-02-16T23:29:18.720Z,20.23
2019-02-16T23:31:58.249Z,21.30
2019-02-16T23:34:37.704Z,19.12
2019-02-16T23:37:19.356Z,20.70
2019-02-16T23:39:59.409Z,20.55
2019-02-16T23:42:39.264Z,20.07
2019-02-16T23:45:19.158Z,18.90
2019-02-16T23:47:59.130Z,19.70
2019-02-16T23:50:39.012Z,20.57
2019-02-16T23:53:18.229Z,20.08
2019-02-16T23:55:57.440Z,21.70
2019-02-16T23:58:37.455Z,22.27
